Time;durP1;ratioP1;P1;durP2;ratioP2;P2;SDS_P1;SDS_P2;PMS_P1;PMS_P2;Temp;Humidity;BMP_temperature;BMP_pressure;BME280_temperature;BME280_humidity;BME280_pressure;Samples;Min_cycle;Max_cycle;Signal;HPM_P1;HPM_P2
2022/03/11 00:01:12;;;;;;;10.90;6.80;;;24.50;42.30;;;;;;219607;1273;25370;-55
2022/03/11 00:06:16;;;;;;;11.90;7.20;;;24.50;41.30;;;;;;219487;1273;22566;-55
2022/03/11 00:11:19;;;;;;;11.90;6.90;;;24.40;42.00;;;;;;219364;1273;25225;-51
2022/03/11 00:16:25;;;;;;;13.50;6.90;;;24.30;42.20;;;;;;219482;1273;24473;-53
2022/03/11 00:21:30;;;;;;;11.00;6.70;;;24.20;42.60;;;;;;219429;1273;24232;-54
2022/03/11 00:26:40;;;;;;;13.90;7.10;;;24.00;42.90;;;;;;219502;1273;22534;-53
2022/03/11 00:31:45;;;;;;;11.40;7.10;;;23.90;43.40;;;;;;219453;1273;22563;-54
2022/03/11 00:36:50;;;;;;;11.20;6.30;;;23.70;43.70;;;;;;219616;1273;22546;-55
2022/03/11 00:41:55;;;;;;;13.20;7.00;;;23.60;44.30;;;;;;219538;1273;22562;-54
2022/03/11 00:46:59;;;;;;;11.20;6.80;;;23.50;44.20;;;;;;219553;1273;24232;-53
2022/03/11 00:52:11;;;;;;;10.10;6.90;;;23.40;44.50;;;;;;219081;1275;24353;-58
2022/03/11 00:57:17;;;;;;;10.60;6.80;;;23.30;44.60;;;;;;219450;1273;23061;-54
2022/03/11 01:02:21;;;;;;;10.60;6.60;;;23.20;44.90;;;;;;219539;1273;25243;-57
2022/03/11 01:07:26;;;;;;;11.20;6.80;;;23.10;45.50;;;;;;219515;1273;25459;-54
2022/03/11 01:12:29;;;;;;;11.50;7.30;;;23.10;45.40;;;;;;219580;1273;25348;-54
2022/03/11 01:17:33;;;;;;;11.10;6.20;;;23.00;45.60;;;;;;219547;1273;22535;-54
2022/03/11 01:22:37;;;;;;;9.90;6.10;;;22.90;45.10;;;;;;219458;1273;26498;-54
2022/03/11 01:27:42;;;;;;;10.30;6.70;;;22.90;44.50;;;;;;219430;1273;26463;-54
2022/03/11 01:32:45;;;;;;;9.40;5.90;;;22.80;44.90;;;;;;219478;1273;25315;-55
2022/03/11 01:37:49;;;;;;;11.00;6.70;;;22.70;45.20;;;;;;219574;1273;25339;-53
2022/03/11 01:42:53;;;;;;;9.40;6.00;;;22.60;45.00;;;;;;219544;1273;25237;-53
2022/03/11 01:47:56;;;;;;;11.10;6.10;;;22.50;45.00;;;;;;219511;1273;26482;-54
2022/03/11 01:53:00;;;;;;;8.90;5.60;;;22.40;45.20;;;;;;219361;1273;25462;-52
2022/03/11 01:58:07;;;;;;;12.10;6.60;;;22.30;45.50;;;;;;219631;1273;22559;-53
2022/03/11 02:03:11;;;;;;;10.30;6.00;;;22.30;45.40;;;;;;222649;1265;67815;-55
2022/03/11 02:08:16;;;;;;;7.80;5.50;;;22.20;45.70;;;;;;220123;1271;22607;-56
2022/03/11 02:13:19;;;;;;;10.70;5.90;;;22.20;45.50;;;;;;219232;1273;26129;-56
2022/03/11 02:18:25;;;;;;;8.70;5.80;;;22.10;45.50;;;;;;219234;1271;25436;-54
2022/03/11 02:23:30;;;;;;;10.40;5.30;;;22.20;45.70;;;;;;219411;1271;23949;-54
2022/03/11 02:28:33;;;;;;;9.50;5.30;;;22.60;45.20;;;;;;219287;1271;23147;-57
2022/03/11 02:33:37;;;;;;;10.00;5.30;;;23.10;43.70;;;;;;219276;1271;24261;-55
2022/03/11 02:38:41;;;;;;;8.30;4.90;;;23.40;42.90;;;;;;219380;1271;24316;-57
2022/03/11 02:43:45;;;;;;;7.40;5.00;;;23.60;42.40;;;;;;219290;1271;22595;-54
2022/03/11 02:48:49;;;;;;;10.80;5.80;;;23.80;42.20;;;;;;219359;1271;22564;-54
2022/03/11 02:53:52;;;;;;;8.80;5.80;;;23.90;41.90;;;;;;219180;1271;25544;-57
2022/03/11 02:58:57;;;;;;;9.70;5.40;;;24.00;41.60;;;;;;219480;1273;22541;-56
2022/03/11 03:04:04;;;;;;;7.60;4.80;;;24.10;41.30;;;;;;219251;1271;26031;-56
2022/03/11 03:09:20;;;;;;;8.50;5.10;;;24.10;41.30;;;;;;219336;1273;26212;-56
2022/03/11 03:14:26;;;;;;;10.30;5.30;;;24.10;41.20;;;;;;219415;1273;22636;-53
2022/03/11 03:19:29;;;;;;;8.60;4.90;;;24.20;41.00;;;;;;219295;1273;22557;-53
2022/03/11 03:24:33;;;;;;;9.20;5.50;;;24.20;40.70;;;;;;219508;1273;23412;-56
2022/03/11 03:29:38;;;;;;;9.00;5.10;;;24.30;40.60;;;;;;219207;1273;24435;-55
2022/03/11 03:34:42;;;;;;;8.40;5.70;;;24.40;40.50;;;;;;219373;1273;25756;-56
2022/03/11 03:39:45;;;;;;;7.70;4.80;;;24.40;40.30;;;;;;219122;1273;25516;-55
2022/03/11 03:44:49;;;;;;;7.90;5.00;;;24.40;40.20;;;;;;219218;1273;25535;-55
2022/03/11 03:49:54;;;;;;;6.40;4.30;;;24.40;40.20;;;;;;219312;1273;22702;-53
2022/03/11 03:54:58;;;;;;;8.80;4.90;;;24.40;40.00;;;;;;219178;1272;24292;-57
2022/03/11 04:00:10;;;;;;;8.00;4.80;;;24.50;40.10;;;;;;219154;1273;27702;-55
2022/03/11 04:05:18;;;;;;;7.70;4.70;;;24.40;40.00;;;;;;219332;1273;23052;-56
2022/03/11 04:10:23;;;;;;;7.40;4.80;;;24.50;40.10;;;;;;219318;1273;22550;-56
2022/03/11 04:15:27;;;;;;;9.80;5.40;;;24.30;40.10;;;;;;219297;1273;24320;-53
2022/03/11 04:20:30;;;;;;;7.50;5.00;;;24.10;40.40;;;;;;219227;1273;25643;-55
2022/03/11 04:25:34;;;;;;;7.30;4.90;;;24.00;40.60;;;;;;219267;1273;25496;-52
2022/03/11 04:30:46;;;;;;;7.90;5.00;;;23.70;41.00;;;;;;219199;1273;22570;-56
2022/03/11 04:35:50;;;;;;;8.80;5.20;;;23.60;41.20;;;;;;219315;1273;24214;-54
2022/03/11 04:40:54;;;;;;;7.50;5.00;;;23.50;41.50;;;;;;219191;1273;24454;-53
2022/03/11 04:45:58;;;;;;;8.30;4.90;;;23.30;42.20;;;;;;219145;1273;176084;-57
2022/03/11 04:51:05;;;;;;;8.40;4.40;;;23.10;42.30;;;;;;219328;1273;22546;-58
2022/03/11 04:56:08;;;;;;;8.50;4.90;;;23.00;42.20;;;;;;219392;1273;23174;-53
2022/03/11 05:01:13;;;;;;;7.80;5.10;;;23.00;42.40;;;;;;219616;1273;25437;-56
2022/03/11 05:06:18;;;;;;;7.50;5.00;;;22.90;42.30;;;;;;219181;1273;24711;-55
2022/03/11 05:11:22;;;;;;;8.20;5.10;;;22.90;42.30;;;;;;219317;1273;22557;-56
2022/03/11 05:16:30;;;;;;;8.50;5.00;;;22.80;42.30;;;;;;219450;1273;26034;-53
2022/03/11 05:21:36;;;;;;;8.10;4.70;;;22.80;42.80;;;;;;219391;1273;23073;-56
2022/03/11 05:26:40;;;;;;;7.20;4.70;;;22.60;42.40;;;;;;219356;1273;24604;-55
2022/03/11 05:31:43;;;;;;;7.60;4.60;;;22.60;42.60;;;;;;219446;1273;22606;-55
2022/03/11 05:36:48;;;;;;;7.50;3.90;;;22.50;42.70;;;;;;219220;1273;24275;-56
2022/03/11 05:41:54;;;;;;;7.30;4.80;;;22.70;42.80;;;;;;219179;1273;25258;-55
2022/03/11 05:46:58;;;;;;;7.00;4.40;;;23.20;42.10;;;;;;219231;1273;25420;-56
2022/03/11 05:52:04;;;;;;;6.70;4.20;;;23.60;41.90;;;;;;219281;1273;22812;-56
2022/03/11 05:57:08;;;;;;;8.50;4.90;;;23.80;41.20;;;;;;219288;1273;24330;-56
2022/03/11 06:02:15;;;;;;;7.40;4.60;;;24.00;40.50;;;;;;219441;1273;22557;-52
2022/03/11 06:07:19;;;;;;;8.30;4.60;;;24.10;40.10;;;;;;219375;1273;26075;-55
2022/03/11 06:12:23;;;;;;;7.30;4.20;;;24.30;39.40;;;;;;219348;1273;25621;-56
2022/03/11 06:17:27;;;;;;;7.90;4.80;;;24.30;39.40;;;;;;219323;1273;22557;-57
2022/03/11 06:22:31;;;;;;;6.80;4.40;;;24.40;39.70;;;;;;219373;1273;25338;-56
2022/03/11 06:27:35;;;;;;;7.40;4.90;;;24.40;39.00;;;;;;219495;1273;22626;-55
2022/03/11 06:32:42;;;;;;;9.00;4.90;;;24.50;39.60;;;;;;219411;1273;25360;-58
2022/03/11 06:37:50;;;;;;;9.00;4.70;;;24.50;39.40;;;;;;219272;1273;22626;-57
2022/03/11 06:42:54;;;;;;;8.30;4.50;;;24.50;39.30;;;;;;219235;1273;22534;-55
2022/03/11 06:47:58;;;;;;;5.70;4.10;;;24.50;39.30;;;;;;219310;1273;25620;-54
2022/03/11 06:53:04;;;;;;;6.80;4.10;;;24.60;39.20;;;;;;219309;1273;24312;-57
2022/03/11 06:58:10;;;;;;;6.50;4.40;;;24.60;39.50;;;;;;219458;1273;22543;-56
2022/03/11 07:03:14;;;;;;;7.30;4.80;;;24.40;39.70;;;;;;219465;1273;22573;-55
2022/03/11 07:08:20;;;;;;;8.30;4.90;;;24.30;39.60;;;;;;219629;1273;23943;-56
2022/03/11 07:13:25;;;;;;;7.70;4.90;;;24.20;40.10;;;;;;219344;1273;22559;-55
2022/03/11 07:18:29;;;;;;;7.60;4.60;;;24.00;40.00;;;;;;219617;1273;24361;-55
2022/03/11 07:23:33;;;;;;;9.50;4.40;;;23.90;40.20;;;;;;219374;1273;26522;-55
2022/03/11 07:28:37;;;;;;;8.10;4.70;;;23.70;40.30;;;;;;219275;1273;25372;-56
2022/03/11 07:33:40;;;;;;;7.70;4.70;;;23.50;41.00;;;;;;219425;1273;26824;-55
2022/03/11 07:38:44;;;;;;;7.20;4.30;;;23.40;40.90;;;;;;219131;1273;22550;-54
2022/03/11 07:43:47;;;;;;;9.90;5.30;;;23.30;41.10;;;;;;219249;1273;22535;-56
2022/03/11 07:49:14;;;;;;;6.80;4.50;;;23.30;41.20;;;;;;219104;1273;22535;-59
2022/03/11 07:54:23;;;;;;;6.30;4.30;;;23.20;41.30;;;;;;219257;1273;22627;-55
2022/03/11 07:59:31;;;;;;;8.50;4.80;;;23.20;41.20;;;;;;219390;1273;24795;-56
2022/03/11 08:04:35;;;;;;;9.20;4.60;;;23.10;41.70;;;;;;219222;1273;22555;-55
2022/03/11 08:09:39;;;;;;;6.40;4.30;;;23.20;41.70;;;;;;219273;1273;25760;-54
2022/03/11 08:14:43;;;;;;;8.50;4.60;;;23.10;41.90;;;;;;219093;1273;26488;-56
2022/03/11 08:19:47;;;;;;;7.10;4.80;;;23.00;41.80;;;;;;219224;1273;23003;-56
2022/03/11 08:24:52;;;;;;;9.70;4.70;;;22.90;42.50;;;;;;218974;1273;25262;-55
2022/03/11 08:29:59;;;;;;;16.60;4.90;;;22.90;42.60;;;;;;220857;1273;22535;-55
2022/03/11 08:35:13;;;;;;;8.50;5.40;;;22.90;42.50;;;;;;219484;1273;24309;-56
2022/03/11 08:40:35;;;;;;;10.00;4.60;;;22.80;42.70;;;;;;219438;1273;26659;-56
2022/03/11 08:45:45;;;;;;;10.60;4.90;;;22.80;42.70;;;;;;219162;1275;24419;-58
2022/03/11 08:51:00;;;;;;;9.90;4.30;;;22.80;42.80;;;;;;219233;1273;22723;-61
2022/03/11 08:56:09;;;;;;;8.90;4.80;;;22.80;43.10;;;;;;219380;1273;22532;-56
2022/03/11 09:01:13;;;;;;;12.00;5.00;;;22.70;42.80;;;;;;219473;1273;22535;-57
2022/03/11 09:06:18;;;;;;;10.30;4.70;;;22.70;42.90;;;;;;219370;1273;23107;-55
2022/03/11 09:11:23;;;;;;;15.40;4.90;;;22.70;42.90;;;;;;219600;1272;22544;-55
2022/03/11 09:16:27;;;;;;;12.00;4.80;;;22.70;43.00;;;;;;219684;1273;22750;-58
2022/03/11 09:21:31;;;;;;;12.50;5.00;;;22.90;42.90;;;;;;219354;1273;22726;-58
2022/03/11 09:26:36;;;;;;;11.70;4.10;;;23.20;42.60;;;;;;221082;1273;26562;-59
2022/03/11 09:31:56;;;;;;;10.90;4.40;;;23.30;42.50;;;;;;219334;1273;22551;-57
2022/03/11 09:37:00;;;;;;;16.70;5.80;;;23.40;42.00;;;;;;219123;1273;22646;-57
2022/03/11 09:42:10;;;;;;;9.80;4.00;;;23.50;42.10;;;;;;219293;1273;26610;-55
2022/03/11 09:47:14;;;;;;;9.80;4.60;;;23.60;42.00;;;;;;219337;1273;22534;-56
2022/03/11 09:52:23;;;;;;;8.40;4.00;;;23.60;41.50;;;;;;219238;1273;25272;-57
2022/03/11 09:57:29;;;;;;;9.20;4.50;;;23.70;41.10;;;;;;219339;1272;25401;-57
2022/03/11 10:02:34;;;;;;;8.10;4.60;;;23.80;41.40;;;;;;219129;1271;22816;-57
2022/03/11 10:07:38;;;;;;;9.70;4.80;;;23.90;41.30;;;;;;219265;1273;23501;-56
2022/03/11 10:12:46;;;;;;;11.70;4.10;;;24.10;41.00;;;;;;219240;1273;22607;-61
2022/03/11 10:17:52;;;;;;;13.80;3.80;;;24.20;41.20;;;;;;219362;1272;25672;-57
2022/03/11 10:22:57;;;;;;;10.50;4.50;;;24.30;41.30;;;;;;219398;1273;25374;-58
2022/03/11 10:28:04;;;;;;;18.10;4.90;;;24.30;41.50;;;;;;223043;1272;24734;-55
2022/03/11 10:33:16;;;;;;;10.70;4.50;;;24.50;41.40;;;;;;220068;1273;23125;-57
2022/03/11 10:38:26;;;;;;;9.80;4.40;;;24.50;40.50;;;;;;222072;1272;22497;-56
2022/03/11 10:43:32;;;;;;;12.70;4.30;;;24.60;40.40;;;;;;219280;1273;22547;-55
2022/03/11 10:48:47;;;;;;;6.70;4.00;;;24.60;40.60;;;;;;223112;1273;24394;-56
2022/03/11 10:53:57;;;;;;;9.50;4.10;;;24.50;41.20;;;;;;219422;1273;22586;-58
2022/03/11 10:59:12;;;;;;;7.90;3.90;;;24.50;41.50;;;;;;219413;1273;24398;-55
2022/03/11 11:04:18;;;;;;;10.80;4.10;;;24.40;41.70;;;;;;219438;1273;24275;-57
2022/03/11 11:09:23;;;;;;;9.90;4.20;;;24.30;41.90;;;;;;219310;1273;22550;-57
2022/03/11 11:14:27;;;;;;;15.60;5.10;;;24.10;42.30;;;;;;219400;1273;24522;-55
2022/03/11 11:19:33;;;;;;;20.70;6.40;;;24.10;42.30;;;;;;219586;1273;23058;-57
2022/03/11 11:24:38;;;;;;;14.40;5.20;;;24.00;42.30;;;;;;219787;1273;25574;-56
2022/03/11 11:29:42;;;;;;;7.80;4.00;;;24.00;42.20;;;;;;219550;1273;22631;-57
2022/03/11 11:34:46;;;;;;;18.60;4.30;;;23.90;42.10;;;;;;219438;1273;24322;-58
2022/03/11 11:39:53;;;;;;;11.10;3.50;;;23.90;41.80;;;;;;219948;1273;25333;-55
2022/03/11 11:44:58;;;;;;;10.70;4.10;;;23.90;41.70;;;;;;219365;1273;24370;-57
2022/03/11 11:50:16;;;;;;;10.30;3.40;;;23.90;41.80;;;;;;219654;1272;22544;-59
2022/03/11 11:55:21;;;;;;;8.30;4.30;;;23.90;42.00;;;;;;219570;1273;22588;-57
2022/03/11 12:00:38;;;;;;;9.00;4.20;;;23.80;41.90;;;;;;219980;1273;22561;-55
2022/03/11 12:05:48;;;;;;;9.70;4.50;;;23.80;41.80;;;;;;219506;1273;24449;-58
2022/03/11 12:10:52;;;;;;;8.70;4.00;;;23.80;41.80;;;;;;219188;1273;22675;-56
2022/03/11 12:15:55;;;;;;;12.10;5.30;;;23.80;41.70;;;;;;219266;1273;22536;-52
2022/03/11 12:21:09;;;;;;;9.60;4.60;;;23.70;37.80;;;;;;219143;1273;22537;-57
2022/03/11 12:26:14;;;;;;;9.50;5.50;;;23.50;37.30;;;;;;219350;1273;22616;-56
2022/03/11 12:31:23;;;;;;;10.00;4.90;;;23.40;33.00;;;;;;219842;1273;25526;-56
2022/03/11 12:36:32;;;;;;;12.40;4.80;;;23.30;31.90;;;;;;219686;1273;22587;-55
2022/03/11 12:41:35;;;;;;;8.00;4.30;;;23.20;28.30;;;;;;219264;1273;26614;-54
2022/03/11 12:46:39;;;;;;;7.90;4.50;;;23.30;29.70;;;;;;219172;1273;22534;-56
2022/03/11 12:51:43;;;;;;;8.50;4.90;;;23.50;29.40;;;;;;219162;1273;24431;-58
2022/03/11 12:56:46;;;;;;;10.70;5.10;;;23.60;27.70;;;;;;219091;1273;24236;-58
2022/03/11 13:01:57;;;;;;;8.40;4.50;;;23.70;26.90;;;;;;227412;1273;22424;-59
2022/03/11 13:07:18;;;;;;;6.90;4.60;;;23.80;26.70;;;;;;227310;1273;23221;-59
2022/03/11 13:12:31;;;;;;;9.10;4.60;;;24.00;26.60;;;;;;227396;1273;23006;-59
2022/03/11 13:17:45;;;;;;;7.90;4.70;;;23.90;25.60;;;;;;227453;1273;22393;-58
2022/03/11 13:23:16;;;;;;;7.80;4.40;;;23.90;25.60;;;;;;227427;1271;22197;-60
2022/03/11 13:28:27;;;;;;;7.40;4.80;;;23.90;25.70;;;;;;227506;1273;22384;-58
2022/03/11 13:33:39;;;;;;;8.90;5.00;;;23.70;25.50;;;;;;221735;1273;23104;-55
2022/03/11 13:38:52;;;;;;;11.50;5.70;;;23.80;24.50;;;;;;219119;1273;23311;-58
2022/03/11 13:44:05;;;;;;;11.30;6.10;;;23.80;26.60;;;;;;219137;1274;24256;-56
2022/03/11 13:49:23;;;;;;;8.60;5.30;;;23.80;26.30;;;;;;220041;1275;23953;-56
2022/03/11 13:54:36;;;;;;;8.70;5.30;;;23.80;25.90;;;;;;219268;1273;22716;-57
2022/03/11 13:59:52;;;;;;;7.80;4.70;;;23.70;25.10;;;;;;227249;1272;22560;-54
2022/03/11 14:05:14;;;;;;;9.70;5.20;;;23.60;24.30;;;;;;219035;1273;25275;-54
2022/03/11 14:10:44;;;;;;;9.00;4.70;;;23.70;24.70;;;;;;219392;1273;22620;-51
2022/03/11 14:15:50;;;;;;;7.70;5.30;;;24.10;25.80;;;;;;219664;1273;25414;-52
2022/03/11 14:20:54;;;;;;;12.20;4.40;;;24.30;27.10;;;;;;219290;1273;26600;-52
2022/03/11 14:25:58;;;;;;;8.30;4.50;;;24.60;27.60;;;;;;219312;1273;22536;-56
2022/03/11 14:31:05;;;;;;;9.20;4.30;;;24.70;28.10;;;;;;219372;1273;22656;-53
2022/03/11 14:36:11;;;;;;;10.40;4.80;;;24.80;28.50;;;;;;219245;1273;24117;-51
2022/03/11 14:41:16;;;;;;;13.40;4.70;;;24.80;28.90;;;;;;219226;1273;25598;-55
2022/03/11 14:46:21;;;;;;;9.10;3.90;;;24.80;29.30;;;;;;219518;1273;22547;-54
2022/03/11 14:51:25;;;;;;;10.90;4.00;;;24.80;30.00;;;;;;219301;1273;22553;-57
2022/03/11 14:56:31;;;;;;;8.50;4.60;;;24.80;30.60;;;;;;219176;1274;27096;-54
2022/03/11 15:01:40;;;;;;;6.50;3.90;;;24.60;31.20;;;;;;219474;1273;25544;-56
2022/03/11 15:06:51;;;;;;;8.50;4.00;;;24.40;31.90;;;;;;219230;1274;22541;-56
2022/03/11 15:12:09;;;;;;;9.00;4.30;;;24.30;32.50;;;;;;219250;1274;24376;-56
2022/03/11 15:17:33;;;;;;;7.80;4.40;;;24.20;32.90;;;;;;219176;1274;24495;-54
2022/03/11 15:22:36;;;;;;;7.30;3.80;;;24.10;33.50;;;;;;219108;1274;23938;-54
2022/03/11 15:27:42;;;;;;;7.90;4.10;;;24.00;34.00;;;;;;219300;1274;22559;-54
2022/03/11 15:32:55;;;;;;;6.10;3.90;;;23.90;34.00;;;;;;219312;1274;25589;-55
2022/03/11 15:38:07;;;;;;;6.20;3.60;;;23.80;34.20;;;;;;219306;1274;24101;-54
2022/03/11 15:43:20;;;;;;;6.40;3.80;;;23.80;34.70;;;;;;219357;1273;25756;-54
2022/03/11 15:48:34;;;;;;;7.10;3.80;;;23.60;34.70;;;;;;219243;1274;25264;-55
2022/03/11 15:53:55;;;;;;;7.00;3.80;;;23.50;35.00;;;;;;219163;1274;24312;-56
2022/03/11 15:58:59;;;;;;;11.50;3.90;;;23.50;35.30;;;;;;219227;1274;25474;-51
2022/03/11 16:04:08;;;;;;;10.30;4.20;;;23.40;35.60;;;;;;219676;1275;22632;-54
2022/03/11 16:09:17;;;;;;;10.20;3.90;;;23.40;35.60;;;;;;219274;1274;25611;-55
2022/03/11 16:14:21;;;;;;;9.00;4.30;;;23.30;35.90;;;;;;219387;1274;22598;-54
2022/03/11 16:19:45;;;;;;;6.50;3.50;;;23.20;36.10;;;;;;219040;1273;22570;-57
2022/03/11 16:24:55;;;;;;;9.20;5.10;;;23.10;36.10;;;;;;227518;1274;22432;-57
2022/03/11 16:30:47;;;;;;;10.80;4.60;;;23.10;35.00;;;;;;221282;1274;22553;-57
2022/03/11 16:36:27;;;;;;;9.50;4.50;;;23.00;35.50;;;;;;220544;1273;24920;-55
2022/03/11 16:41:42;;;;;;;9.30;4.40;;;22.90;35.90;;;;;;227490;1273;23040;-57
2022/03/11 16:46:49;;;;;;;6.90;3.80;;;22.90;36.10;;;;;;227273;1273;231740;-57
2022/03/11 16:52:02;;;;;;;9.30;4.90;;;22.80;36.40;;;;;;222889;1273;22575;-54
2022/03/11 16:57:14;;;;;;;9.60;3.80;;;22.80;36.60;;;;;;227502;1272;22411;-57
2022/03/11 17:02:18;;;;;;;13.00;4.80;;;22.70;36.80;;;;;;227616;1272;22342;-56
2022/03/11 17:07:23;;;;;;;22.10;5.00;;;22.70;36.80;;;;;;223813;1273;24247;-55
2022/03/11 17:12:46;;;;;;;9.90;3.70;;;22.70;36.90;;;;;;219360;1273;24444;-53
2022/03/11 17:18:12;;;;;;;12.60;4.40;;;22.70;36.60;;;;;;219637;1273;22552;-55
2022/03/11 17:23:36;;;;;;;8.80;4.50;;;22.60;36.90;;;;;;219434;1274;22553;-57
2022/03/11 17:28:45;;;;;;;10.50;4.80;;;22.50;37.70;;;;;;219383;1273;23013;-56
2022/03/11 17:33:57;;;;;;;8.60;4.80;;;22.50;38.30;;;;;;219352;1273;24266;-52
2022/03/11 17:39:05;;;;;;;9.80;5.10;;;22.40;38.40;;;;;;219504;1273;25677;-55
2022/03/11 17:44:46;;;;;;;9.90;4.70;;;22.40;38.60;;;;;;219315;1273;22691;-55
2022/03/11 17:49:52;;;;;;;12.40;5.10;;;22.30;38.60;;;;;;219483;1273;25458;-57
2022/03/11 17:54:57;;;;;;;11.30;5.70;;;22.30;39.00;;;;;;219626;1273;24372;-56
2022/03/11 18:00:17;;;;;;;15.10;5.80;;;22.30;38.40;;;;;;219584;1273;22990;-57
2022/03/11 18:05:24;;;;;;;10.90;5.40;;;22.30;39.40;;;;;;219366;1273;22658;-56
2022/03/11 18:10:30;;;;;;;12.30;6.00;;;22.60;38.10;;;;;;219596;1273;22580;-53
2022/03/11 18:15:33;;;;;;;10.90;5.60;;;23.00;37.40;;;;;;219621;1273;24268;-53
2022/03/11 18:20:51;;;;;;;13.30;5.30;;;23.30;37.00;;;;;;219560;1273;25439;-53
2022/03/11 18:25:55;;;;;;;25.60;6.40;;;23.50;39.00;;;;;;219611;1273;26585;-56
2022/03/11 18:31:08;;;;;;;14.90;5.60;;;23.40;39.70;;;;;;219397;1273;23393;-54
2022/03/11 18:36:21;;;;;;;11.10;5.90;;;23.20;40.60;;;;;;219552;1273;22600;-54
2022/03/11 18:41:31;;;;;;;14.30;6.00;;;23.50;40.70;;;;;;219473;1273;25530;-55
2022/03/11 18:46:45;;;;;;;13.30;6.10;;;23.80;40.20;;;;;;219436;1273;23041;-56
2022/03/11 18:52:06;;;;;;;12.80;5.80;;;23.90;39.60;;;;;;219579;1274;25438;-56
2022/03/11 18:57:12;;;;;;;17.30;5.70;;;23.90;39.40;;;;;;219527;1273;22544;-55
2022/03/11 19:02:22;;;;;;;12.10;5.40;;;23.90;38.60;;;;;;219444;1273;22554;-54
2022/03/11 19:07:27;;;;;;;9.60;5.50;;;23.90;38.40;;;;;;219342;1273;25509;-55
2022/03/11 19:12:31;;;;;;;13.80;6.40;;;24.10;38.60;;;;;;219405;1273;22542;-56
2022/03/11 19:17:37;;;;;;;10.20;5.40;;;24.10;38.40;;;;;;219396;1273;22635;-55
2022/03/11 19:22:41;;;;;;;10.60;6.00;;;24.10;38.10;;;;;;219525;1273;25581;-54
2022/03/11 19:27:46;;;;;;;11.80;5.80;;;24.20;38.20;;;;;;219458;1273;22652;-55
2022/03/11 19:32:53;;;;;;;12.30;5.60;;;24.00;38.10;;;;;;219276;1273;22563;-51
2022/03/11 19:38:11;;;;;;;11.20;6.30;;;23.90;38.20;;;;;;219312;1273;22777;-54
2022/03/11 19:43:35;;;;;;;9.80;4.90;;;23.70;38.40;;;;;;219402;1273;23099;-55
2022/03/11 19:48:40;;;;;;;12.30;5.80;;;23.60;38.70;;;;;;219433;1273;23065;-54
2022/03/11 19:53:45;;;;;;;7.70;5.10;;;23.50;39.20;;;;;;219532;1273;22687;-53
2022/03/11 19:58:54;;;;;;;12.90;5.70;;;23.40;39.60;;;;;;219449;1273;24348;-54
2022/03/11 20:04:22;;;;;;;21.90;6.50;;;23.30;40.10;;;;;;219418;1273;22560;-53
2022/03/11 20:09:45;;;;;;;;;;;;;;;;;;;;;
2022/03/11 20:15:18;;;;;;;16.80;6.50;;;23.20;42.90;;;;;;219159;1273;23101;-56
2022/03/11 20:21:01;;;;;;;24.10;6.40;;;23.40;44.10;;;;;;219740;1273;22574;-57
2022/03/11 20:26:33;;;;;;;22.30;7.10;;;23.20;43.20;;;;;;219457;1273;24315;-56
2022/03/11 20:31:42;;;;;;;19.40;6.90;;;23.20;43.60;;;;;;219736;1273;24289;-57
2022/03/11 20:36:58;;;;;;;14.00;5.70;;;23.00;43.60;;;;;;219339;1274;25622;-56
2022/03/11 20:42:20;;;;;;;15.10;6.00;;;23.00;43.70;;;;;;219523;1273;22566;-56
2022/03/11 20:47:24;;;;;;;13.80;6.00;;;22.90;44.50;;;;;;219510;1275;24513;-57
2022/03/11 20:52:44;;;;;;;16.10;6.40;;;22.90;45.20;;;;;;219573;1273;24410;-61
2022/03/11 20:57:57;;;;;;;16.10;6.70;;;23.00;45.10;;;;;;219315;1274;23172;-56
2022/03/11 21:03:08;;;;;;;13.10;5.80;;;22.90;44.20;;;;;;219455;1273;24305;-53
2022/03/11 21:08:13;;;;;;;12.60;6.40;;;22.70;43.70;;;;;;219649;1273;23878;-54
2022/03/11 21:13:30;;;;;;;11.80;5.80;;;22.70;43.20;;;;;;219504;1273;22565;-54
2022/03/11 21:18:41;;;;;;;14.30;6.10;;;22.50;42.80;;;;;;219475;1273;26357;-55
2022/03/11 21:23:47;;;;;;;12.60;7.20;;;22.30;43.10;;;;;;219528;1273;22540;-51
2022/03/11 21:29:03;;;;;;;16.30;6.80;;;22.30;43.10;;;;;;219669;1273;22621;-54
2022/03/11 21:34:10;;;;;;;23.00;6.70;;;22.30;42.90;;;;;;219642;1273;25360;-54
2022/03/11 21:39:16;;;;;;;17.70;7.10;;;22.30;42.70;;;;;;219553;1273;23951;-54
2022/03/11 21:44:32;;;;;;;14.60;6.50;;;22.30;42.70;;;;;;219365;1273;22550;-56
2022/03/11 21:49:39;;;;;;;13.20;7.00;;;22.30;42.20;;;;;;219681;1273;22771;-52
2022/03/11 21:54:43;;;;;;;13.00;6.50;;;22.80;41.70;;;;;;219303;1273;23165;-53
2022/03/11 21:59:55;;;;;;;14.50;7.40;;;22.90;41.10;;;;;;219469;1273;22551;-55
2022/03/11 22:05:02;;;;;;;14.10;6.80;;;23.00;41.10;;;;;;223757;1273;24561;-53
2022/03/11 22:10:16;;;;;;;11.80;6.30;;;23.20;40.50;;;;;;219355;1273;22627;-54
2022/03/11 22:15:20;;;;;;;13.50;6.60;;;23.40;40.10;;;;;;219425;1273;25339;-55
2022/03/11 22:20:31;;;;;;;12.00;5.50;;;23.50;40.20;;;;;;219308;1274;23973;-54
2022/03/11 22:25:44;;;;;;;18.00;6.30;;;23.60;40.00;;;;;;219635;1273;24236;-53
2022/03/11 22:30:50;;;;;;;15.60;6.50;;;23.70;39.40;;;;;;219550;1273;25638;-53
2022/03/11 22:35:55;;;;;;;12.80;7.30;;;24.00;40.90;;;;;;219799;1273;25660;-55
2022/03/11 22:41:05;;;;;;;15.80;6.30;;;24.00;41.40;;;;;;219808;1273;26510;-54
2022/03/11 22:46:21;;;;;;;14.60;6.30;;;24.10;40.70;;;;;;219414;1274;22740;-54
2022/03/11 22:51:34;;;;;;;11.50;6.20;;;24.10;40.90;;;;;;219639;1273;26077;-55
2022/03/11 22:56:41;;;;;;;12.70;6.30;;;24.20;40.40;;;;;;219728;1273;22546;-55
2022/03/11 23:01:46;;;;;;;12.10;5.80;;;24.30;40.30;;;;;;219379;1275;22604;-53
2022/03/11 23:12:14;;;;;;;13.50;6.90;;;24.40;39.90;;;;;;219551;1273;22554;-53
2022/03/11 23:17:21;;;;;;;11.30;5.70;;;24.40;39.90;;;;;;219565;1273;24319;-52
2022/03/11 23:22:26;;;;;;;10.40;6.00;;;24.50;39.60;;;;;;219745;1273;22557;-54
2022/03/11 23:27:35;;;;;;;12.00;5.50;;;24.40;39.50;;;;;;219510;1273;25439;-55
2022/03/11 23:32:42;;;;;;;11.20;6.00;;;24.30;39.90;;;;;;219679;1273;22721;-56
2022/03/11 23:37:47;;;;;;;12.30;5.40;;;24.20;39.70;;;;;;219531;1273;25495;-53
2022/03/11 23:42:59;;;;;;;19.00;7.10;;;24.10;40.50;;;;;;219617;1273;22534;-52
2022/03/11 23:48:27;;;;;;;15.60;6.90;;;23.90;41.10;;;;;;219503;1273;25943;-56
2022/03/11 23:53:35;;;;;;;13.30;5.30;;;23.70;41.80;;;;;;219586;1273;24304;-56
2022/03/11 23:58:39;;;;;;;9.90;5.70;;;23.50;42.10;;;;;;219662;1273;22570;-56
